sensor_id;sensor_type;location;lat;lon;timestamp;temperature;humidity
68511;SHT31;55512;50.102;19.958;2024-01-15T00:01:54;2.05;68.81
68511;SHT31;55512;50.102;19.958;2024-01-15T00:04:31;2.05;68.80
68511;SHT31;55512;50.102;19.958;2024-01-15T00:07:03;2.05;68.74
68511;SHT31;55512;50.102;19.958;2024-01-15T00:09:29;2.06;68.78
68511;SHT31;55512;50.102;19.958;2024-01-15T00:11:58;2.06;68.77
68511;SHT31;55512;50.102;19.958;2024-01-15T00:14:27;2.06;68.70
68511;SHT31;55512;50.102;19.958;2024-01-15T00:16:56;2.05;68.71
68511;SHT31;55512;50.102;19.958;2024-01-15T00:19:22;2.05;68.66
68511;SHT31;55512;50.102;19.958;2024-01-15T00:21:55;2.07;68.60
68511;SHT31;55512;50.102;19.958;2024-01-15T00:24:29;2.06;68.60
68511;SHT31;55512;50.102;19.958;2024-01-15T00:26:58;2.05;68.55
68511;SHT31;55512;50.102;19.958;2024-01-15T00:29:35;2.05;68.50
68511;SHT31;55512;50.102;19.958;2024-01-15T00:32:15;2.06;68.40
68511;SHT31;55512;50.102;19.958;2024-01-15T00:38:51;2.07;68.18
68511;SHT31;55512;50.102;19.958;2024-01-15T00:46:18;2.07;68.25
68511;SHT31;55512;50.102;19.958;2024-01-15T00:49:26;2.06;68.24
68511;SHT31;55512;50.102;19.958;2024-01-15T00:51:55;2.04;68.16
68511;SHT31;55512;50.102;19.958;2024-01-15T00:54:26;2.03;68.18
68511;SHT31;55512;50.102;19.958;2024-01-15T00:56:52;2.02;68.13
68511;SHT31;55512;50.102;19.958;2024-01-15T00:59:20;2.02;68.12
68511;SHT31;55512;50.102;19.958;2024-01-15T01:01:46;2.01;68.09
68511;SHT31;55512;50.102;19.958;2024-01-15T01:04:12;2.01;68.05
68511;SHT31;55512;50.102;19.958;2024-01-15T01:06:38;2.00;68.05
68511;SHT31;55512;50.102;19.958;2024-01-15T01:09:10;2.01;67.96
68511;SHT31;55512;50.102;19.958;2024-01-15T01:11:35;2.01;67.94
68511;SHT31;55512;50.102;19.958;2024-01-15T01:14:01;2.00;67.99
68511;SHT31;55512;50.102;19.958;2024-01-15T01:16:28;2.01;68.04
68511;SHT31;55512;50.102;19.958;2024-01-15T01:18:55;2.01;68.00
68511;SHT31;55512;50.102;19.958;2024-01-15T01:21:23;2.00;67.97
68511;SHT31;55512;50.102;19.958;2024-01-15T01:23:49;2.01;67.90
68511;SHT31;55512;50.102;19.958;2024-01-15T01:26:18;2.01;67.98
68511;SHT31;55512;50.102;19.958;2024-01-15T01:28:43;2.00;68.04
68511;SHT31;55512;50.102;19.958;2024-01-15T01:31:09;1.99;68.11
68511;SHT31;55512;50.102;19.958;2024-01-15T01:33:38;1.97;68.17
68511;SHT31;55512;50.102;19.958;2024-01-15T01:36:09;1.96;68.08
68511;SHT31;55512;50.102;19.958;2024-01-15T01:38:39;1.97;68.00
68511;SHT31;55512;50.102;19.958;2024-01-15T01:41:06;1.97;67.99
68511;SHT31;55512;50.102;19.958;2024-01-15T01:43:32;1.97;67.86
68511;SHT31;55512;50.102;19.958;2024-01-15T01:46:00;1.98;67.88
68511;SHT31;55512;50.102;19.958;2024-01-15T01:48:28;1.98;67.83
68511;SHT31;55512;50.102;19.958;2024-01-15T01:50:55;1.98;67.75
68511;SHT31;55512;50.102;19.958;2024-01-15T01:53:27;2.00;67.68
68511;SHT31;55512;50.102;19.958;2024-01-15T01:55:54;2.02;67.49
68511;SHT31;55512;50.102;19.958;2024-01-15T01:58:22;2.03;67.23
68511;SHT31;55512;50.102;19.958;2024-01-15T02:00:49;2.07;66.98
68511;SHT31;55512;50.102;19.958;2024-01-15T02:03:15;2.10;66.68
68511;SHT31;55512;50.102;19.958;2024-01-15T02:05:43;2.12;66.56
68511;SHT31;55512;50.102;19.958;2024-01-15T02:08:09;2.15;66.08
68511;SHT31;55512;50.102;19.958;2024-01-15T02:10:35;2.21;65.43
68511;SHT31;55512;50.102;19.958;2024-01-15T02:13:01;2.27;65.37
68511;SHT31;55512;50.102;19.958;2024-01-15T02:15:27;2.30;65.29
68511;SHT31;55512;50.102;19.958;2024-01-15T02:18:11;2.31;65.12
68511;SHT31;55512;50.102;19.958;2024-01-15T02:20:37;2.34;64.83
68511;SHT31;55512;50.102;19.958;2024-01-15T02:23:12;2.35;64.85
68511;SHT31;55512;50.102;19.958;2024-01-15T02:25:41;2.36;64.77
68511;SHT31;55512;50.102;19.958;2024-01-15T02:28:16;2.38;64.69
68511;SHT31;55512;50.102;19.958;2024-01-15T02:30:43;2.39;64.67
68511;SHT31;55512;50.102;19.958;2024-01-15T02:33:09;2.38;64.72
68511;SHT31;55512;50.102;19.958;2024-01-15T02:35:36;2.38;64.54
68511;SHT31;55512;50.102;19.958;2024-01-15T02:38:03;2.39;64.19
68511;SHT31;55512;50.102;19.958;2024-01-15T02:40:30;2.40;64.37
68511;SHT31;55512;50.102;19.958;2024-01-15T02:42:56;2.41;64.35
68511;SHT31;55512;50.102;19.958;2024-01-15T02:45:25;2.41;64.21
68511;SHT31;55512;50.102;19.958;2024-01-15T02:47:51;2.42;64.11
68511;SHT31;55512;50.102;19.958;2024-01-15T02:50:16;2.41;64.12
68511;SHT31;55512;50.102;19.958;2024-01-15T02:52:42;2.40;64.21
68511;SHT31;55512;50.102;19.958;2024-01-15T02:55:08;2.39;64.22
68511;SHT31;55512;50.102;19.958;2024-01-15T02:57:34;2.37;64.33
68511;SHT31;55512;50.102;19.958;2024-01-15T03:00:00;2.35;64.46
68511;SHT31;55512;50.102;19.958;2024-01-15T03:02:32;2.34;64.54
68511;SHT31;55512;50.102;19.958;2024-01-15T03:05:30;2.31;64.66
68511;SHT31;55512;50.102;19.958;2024-01-15T03:07:58;2.30;64.55
68511;SHT31;55512;50.102;19.958;2024-01-15T03:10:24;2.30;64.61
68511;SHT31;55512;50.102;19.958;2024-01-15T03:12:50;2.28;64.64
68511;SHT31;55512;50.102;19.958;2024-01-15T03:15:16;2.28;64.79
68511;SHT31;55512;50.102;19.958;2024-01-15T03:17:47;2.24;64.94
68511;SHT31;55512;50.102;19.958;2024-01-15T03:20:13;2.22;64.93
68511;SHT31;55512;50.102;19.958;2024-01-15T03:22:39;2.20;64.88
68511;SHT31;55512;50.102;19.958;2024-01-15T03:25:05;2.19;64.84
68511;SHT31;55512;50.102;19.958;2024-01-15T03:27:35;2.17;65.05
68511;SHT31;55512;50.102;19.958;2024-01-15T03:30:01;2.13;65.19
68511;SHT31;55512;50.102;19.958;2024-01-15T03:32:27;2.10;65.27
68511;SHT31;55512;50.102;19.958;2024-01-15T03:34:53;2.07;65.33
68511;SHT31;55512;50.102;19.958;2024-01-15T03:37:21;2.00;65.49
68511;SHT31;55512;50.102;19.958;2024-01-15T03:39:47;1.96;65.65
68511;SHT31;55512;50.102;19.958;2024-01-15T03:42:13;1.94;65.08
68511;SHT31;55512;50.102;19.958;2024-01-15T03:44:39;1.97;64.63
68511;SHT31;55512;50.102;19.958;2024-01-15T03:47:05;1.97;64.67
68511;SHT31;55512;50.102;19.958;2024-01-15T03:49:30;1.98;64.45
68511;SHT31;55512;50.102;19.958;2024-01-15T03:51:56;1.99;64.01
68511;SHT31;55512;50.102;19.958;2024-01-15T03:54:22;2.01;63.88
68511;SHT31;55512;50.102;19.958;2024-01-15T03:56:48;2.02;63.70
68511;SHT31;55512;50.102;19.958;2024-01-15T03:59:13;2.04;63.10
68511;SHT31;55512;50.102;19.958;2024-01-15T04:01:39;2.09;63.07
68511;SHT31;55512;50.102;19.958;2024-01-15T04:04:05;2.12;62.98
68511;SHT31;55512;50.102;19.958;2024-01-15T04:06:31;2.14;62.85
68511;SHT31;55512;50.102;19.958;2024-01-15T04:08:58;2.17;62.72
68511;SHT31;55512;50.102;19.958;2024-01-15T04:11:24;2.19;62.43
68511;SHT31;55512;50.102;19.958;2024-01-15T04:13:50;2.23;62.33
68511;SHT31;55512;50.102;19.958;2024-01-15T04:16:15;2.24;62.31
68511;SHT31;55512;50.102;19.958;2024-01-15T04:18:41;2.26;62.09
68511;SHT31;55512;50.102;19.958;2024-01-15T04:21:12;2.28;62.10
68511;SHT31;55512;50.102;19.958;2024-01-15T04:23:38;2.28;61.72
68511;SHT31;55512;50.102;19.958;2024-01-15T04:26:04;2.31;61.59
68511;SHT31;55512;50.102;19.958;2024-01-15T04:28:30;2.32;61.83
68511;SHT31;55512;50.102;19.958;2024-01-15T04:30:58;2.29;61.36
68511;SHT31;55512;50.102;19.958;2024-01-15T04:33:24;2.35;61.50
68511;SHT31;55512;50.102;19.958;2024-01-15T04:35:53;2.35;61.50
68511;SHT31;55512;50.102;19.958;2024-01-15T04:38:22;2.35;61.48
68511;SHT31;55512;50.102;19.958;2024-01-15T04:40:50;2.36;61.37
68511;SHT31;55512;50.102;19.958;2024-01-15T04:43:19;2.37;61.13
68511;SHT31;55512;50.102;19.958;2024-01-15T04:45:44;2.39;61.04
68511;SHT31;55512;50.102;19.958;2024-01-15T04:48:10;2.43;61.00
68511;SHT31;55512;50.102;19.958;2024-01-15T04:50:47;2.43;60.70
68511;SHT31;55512;50.102;19.958;2024-01-15T04:53:13;2.46;60.59
68511;SHT31;55512;50.102;19.958;2024-01-15T04:55:39;2.50;60.80
68511;SHT31;55512;50.102;19.958;2024-01-15T04:58:05;2.49;60.69
68511;SHT31;55512;50.102;19.958;2024-01-15T05:00:30;2.51;60.60
68511;SHT31;55512;50.102;19.958;2024-01-15T05:02:59;2.52;60.62
68511;SHT31;55512;50.102;19.958;2024-01-15T05:05:25;2.52;60.73
68511;SHT31;55512;50.102;19.958;2024-01-15T05:07:51;2.52;60.57
68511;SHT31;55512;50.102;19.958;2024-01-15T05:10:16;2.53;60.28
68511;SHT31;55512;50.102;19.958;2024-01-15T05:12:42;2.54;59.98
68511;SHT31;55512;50.102;19.958;2024-01-15T05:15:08;2.56;60.21
68511;SHT31;55512;50.102;19.958;2024-01-15T05:17:34;2.56;60.28
68511;SHT31;55512;50.102;19.958;2024-01-15T05:20:00;2.57;60.36
68511;SHT31;55512;50.102;19.958;2024-01-15T05:22:26;2.56;60.46
68511;SHT31;55512;50.102;19.958;2024-01-15T05:24:52;2.55;60.57
68511;SHT31;55512;50.102;19.958;2024-01-15T05:27:18;2.55;60.61
68511;SHT31;55512;50.102;19.958;2024-01-15T05:29:52;2.55;60.69
68511;SHT31;55512;50.102;19.958;2024-01-15T05:32:21;2.54;60.66
68511;SHT31;55512;50.102;19.958;2024-01-15T05:34:49;2.54;60.54
68511;SHT31;55512;50.102;19.958;2024-01-15T05:37:15;2.55;60.57
68511;SHT31;55512;50.102;19.958;2024-01-15T05:39:41;2.54;60.89
68511;SHT31;55512;50.102;19.958;2024-01-15T05:42:09;2.52;61.08
68511;SHT31;55512;50.102;19.958;2024-01-15T05:44:35;2.50;61.26
68511;SHT31;55512;50.102;19.958;2024-01-15T05:47:01;2.47;61.25
68511;SHT31;55512;50.102;19.958;2024-01-15T05:49:31;2.43;61.07
68511;SHT31;55512;50.102;19.958;2024-01-15T05:51:57;2.42;61.23
68511;SHT31;55512;50.102;19.958;2024-01-15T05:54:25;2.41;61.31
68511;SHT31;55512;50.102;19.958;2024-01-15T05:57:00;2.58;61.01
68511;SHT31;55512;50.102;19.958;2024-01-15T05:59:49;2.60;60.56
68511;SHT31;55512;50.102;19.958;2024-01-15T06:02:17;2.62;60.68
68511;SHT31;55512;50.102;19.958;2024-01-15T06:04:43;2.62;60.53
68511;SHT31;55512;50.102;19.958;2024-01-15T06:07:12;2.65;60.61
68511;SHT31;55512;50.102;19.958;2024-01-15T06:09:49;2.64;60.83
68511;SHT31;55512;50.102;19.958;2024-01-15T06:12:15;2.46;61.41
68511;SHT31;55512;50.102;19.958;2024-01-15T06:14:53;2.43;61.49
68511;SHT31;55512;50.102;19.958;2024-01-15T06:17:19;2.45;61.46
68511;SHT31;55512;50.102;19.958;2024-01-15T06:19:48;2.45;61.60
68511;SHT31;55512;50.102;19.958;2024-01-15T06:22:13;2.44;61.61
68511;SHT31;55512;50.102;19.958;2024-01-15T06:24:43;2.46;61.86
68511;SHT31;55512;50.102;19.958;2024-01-15T06:27:09;2.43;62.15
68511;SHT31;55512;50.102;19.958;2024-01-15T06:29:37;2.43;62.02
68511;SHT31;55512;50.102;19.958;2024-01-15T06:32:10;2.43;62.20
68511;SHT31;55512;50.102;19.958;2024-01-15T06:34:36;2.43;62.38
68511;SHT31;55512;50.102;19.958;2024-01-15T06:37:04;2.45;62.17
68511;SHT31;55512;50.102;19.958;2024-01-15T06:39:33;2.54;62.00
68511;SHT31;55512;50.102;19.958;2024-01-15T06:42:22;2.71;61.45
68511;SHT31;55512;50.102;19.958;2024-01-15T06:44:51;2.83;61.29
68511;SHT31;55512;50.102;19.958;2024-01-15T06:47:19;3.00;60.82
68511;SHT31;55512;50.102;19.958;2024-01-15T06:53:19;3.07;60.68
68511;SHT31;55512;50.102;19.958;2024-01-15T06:55:47;3.08;60.56
68511;SHT31;55512;50.102;19.958;2024-01-15T06:58:21;3.08;60.44
68511;SHT31;55512;50.102;19.958;2024-01-15T07:00:52;3.09;60.27
68511;SHT31;55512;50.102;19.958;2024-01-15T07:03:18;3.11;60.25
68511;SHT31;55512;50.102;19.958;2024-01-15T07:05:49;3.12;60.10
68511;SHT31;55512;50.102;19.958;2024-01-15T07:08:15;3.15;60.24
68511;SHT31;55512;50.102;19.958;2024-01-15T07:10:40;3.15;60.14
68511;SHT31;55512;50.102;19.958;2024-01-15T07:13:06;3.16;60.23
68511;SHT31;55512;50.102;19.958;2024-01-15T07:15:35;3.15;60.02
68511;SHT31;55512;50.102;19.958;2024-01-15T07:18:03;3.18;59.83
68511;SHT31;55512;50.102;19.958;2024-01-15T07:20:30;3.20;59.77
68511;SHT31;55512;50.102;19.958;2024-01-15T07:22:59;3.21;59.80
68511;SHT31;55512;50.102;19.958;2024-01-15T07:25:24;3.24;59.77
68511;SHT31;55512;50.102;19.958;2024-01-15T07:27:54;3.26;59.82
68511;SHT31;55512;50.102;19.958;2024-01-15T07:30:20;3.25;59.69
68511;SHT31;55512;50.102;19.958;2024-01-15T07:32:47;3.26;59.68
68511;SHT31;55512;50.102;19.958;2024-01-15T07:35:14;3.27;59.57
68511;SHT31;55512;50.102;19.958;2024-01-15T07:37:40;3.28;59.60
68511;SHT31;55512;50.102;19.958;2024-01-15T07:40:06;3.29;59.65
68511;SHT31;55512;50.102;19.958;2024-01-15T07:42:34;3.29;59.51
68511;SHT31;55512;50.102;19.958;2024-01-15T07:45:09;3.33;59.68
68511;SHT31;55512;50.102;19.958;2024-01-15T07:47:35;3.33;59.58
68511;SHT31;55512;50.102;19.958;2024-01-15T07:50:02;3.35;59.45
68511;SHT31;55512;50.102;19.958;2024-01-15T07:52:31;3.36;59.31
68511;SHT31;55512;50.102;19.958;2024-01-15T07:54:59;3.40;59.43
68511;SHT31;55512;50.102;19.958;2024-01-15T07:57:25;3.44;59.50
68511;SHT31;55512;50.102;19.958;2024-01-15T07:59:51;3.46;59.37
68511;SHT31;55512;50.102;19.958;2024-01-15T08:02:17;3.50;59.13
68511;SHT31;55512;50.102;19.958;2024-01-15T08:04:43;3.56;59.05
68511;SHT31;55512;50.102;19.958;2024-01-15T08:07:11;3.63;59.01
68511;SHT31;55512;50.102;19.958;2024-01-15T08:09:38;3.66;58.88
68511;SHT31;55512;50.102;19.958;2024-01-15T08:12:09;3.70;58.93
68511;SHT31;55512;50.102;19.958;2024-01-15T08:14:37;3.77;58.97
68511;SHT31;55512;50.102;19.958;2024-01-15T08:17:16;3.63;59.34
68511;SHT31;55512;50.102;19.958;2024-01-15T08:19:53;3.55;59.71
68511;SHT31;55512;50.102;19.958;2024-01-15T08:22:38;3.53;59.75
68511;SHT31;55512;50.102;19.958;2024-01-15T08:28:23;3.53;60.02
68511;SHT31;55512;50.102;19.958;2024-01-15T08:30:54;3.51;59.87
68511;SHT31;55512;50.102;19.958;2024-01-15T08:33:28;3.51;59.76
68511;SHT31;55512;50.102;19.958;2024-01-15T08:36:03;3.54;59.74
68511;SHT31;55512;50.102;19.958;2024-01-15T08:38:53;3.62;59.79
68511;SHT31;55512;50.102;19.958;2024-01-15T08:41:23;3.71;59.56
68511;SHT31;55512;50.102;19.958;2024-01-15T08:43:51;3.79;59.39
68511;SHT31;55512;50.102;19.958;2024-01-15T08:46:18;3.85;59.30
68511;SHT31;55512;50.102;19.958;2024-01-15T08:48:44;3.88;58.98
68511;SHT31;55512;50.102;19.958;2024-01-15T08:51:11;3.92;58.93
68511;SHT31;55512;50.102;19.958;2024-01-15T08:53:36;3.87;58.24
68511;SHT31;55512;50.102;19.958;2024-01-15T08:56:02;3.87;58.25
68511;SHT31;55512;50.102;19.958;2024-01-15T08:58:28;3.82;58.27
68511;SHT31;55512;50.102;19.958;2024-01-15T09:00:54;3.73;58.02
68511;SHT31;55512;50.102;19.958;2024-01-15T09:03:23;3.69;58.21
68511;SHT31;55512;50.102;19.958;2024-01-15T09:05:49;3.58;57.94
68511;SHT31;55512;50.102;19.958;2024-01-15T09:08:16;3.60;57.93
68511;SHT31;55512;50.102;19.958;2024-01-15T09:11:04;3.68;57.98
68511;SHT31;55512;50.102;19.958;2024-01-15T09:13:35;3.67;57.51
68511;SHT31;55512;50.102;19.958;2024-01-15T09:16:01;3.67;57.41
68511;SHT31;55512;50.102;19.958;2024-01-15T09:18:30;3.66;57.28
68511;SHT31;55512;50.102;19.958;2024-01-15T09:20:56;3.70;57.34
68511;SHT31;55512;50.102;19.958;2024-01-15T09:23:22;3.71;57.37
68511;SHT31;55512;50.102;19.958;2024-01-15T09:25:50;3.67;57.33
68511;SHT31;55512;50.102;19.958;2024-01-15T09:28:17;3.67;57.25
68511;SHT31;55512;50.102;19.958;2024-01-15T09:30:43;3.63;57.23
68511;SHT31;55512;50.102;19.958;2024-01-15T09:33:10;3.61;57.38
68511;SHT31;55512;50.102;19.958;2024-01-15T09:35:36;3.65;57.45
68511;SHT31;55512;50.102;19.958;2024-01-15T09:38:05;3.53;57.29
68511;SHT31;55512;50.102;19.958;2024-01-15T09:40:31;3.53;57.73
68511;SHT31;55512;50.102;19.958;2024-01-15T09:42:58;3.56;59.21
68511;SHT31;55512;50.102;19.958;2024-01-15T09:45:54;3.51;60.96
68511;SHT31;55512;50.102;19.958;2024-01-15T09:48:20;3.51;61.64
68511;SHT31;55512;50.102;19.958;2024-01-15T09:50:46;3.47;62.34
68511;SHT31;55512;50.102;19.958;2024-01-15T09:53:14;3.46;62.50
68511;SHT31;55512;50.102;19.958;2024-01-15T09:55:43;3.50;61.96
68511;SHT31;55512;50.102;19.958;2024-01-15T09:58:12;3.43;61.54
68511;SHT31;55512;50.102;19.958;2024-01-15T10:00:38;3.47;61.21
68511;SHT31;55512;50.102;19.958;2024-01-15T10:03:07;3.55;60.63
68511;SHT31;55512;50.102;19.958;2024-01-15T10:05:35;3.77;60.07
68511;SHT31;55512;50.102;19.958;2024-01-15T10:08:01;3.85;58.93
68511;SHT31;55512;50.102;19.958;2024-01-15T10:10:29;3.72;59.17
68511;SHT31;55512;50.102;19.958;2024-01-15T10:12:56;3.57;59.87
68511;SHT31;55512;50.102;19.958;2024-01-15T10:15:26;3.48;60.84
68511;SHT31;55512;50.102;19.958;2024-01-15T10:17:54;3.57;62.28
68511;SHT31;55512;50.102;19.958;2024-01-15T10:20:23;3.66;62.54
68511;SHT31;55512;50.102;19.958;2024-01-15T10:22:56;3.58;63.29
68511;SHT31;55512;50.102;19.958;2024-01-15T10:25:32;3.47;62.27
68511;SHT31;55512;50.102;19.958;2024-01-15T10:28:01;3.35;62.15
68511;SHT31;55512;50.102;19.958;2024-01-15T10:30:36;3.24;62.22
68511;SHT31;55512;50.102;19.958;2024-01-15T10:33:02;3.22;62.20
68511;SHT31;55512;50.102;19.958;2024-01-15T10:35:48;3.24;61.66
68511;SHT31;55512;50.102;19.958;2024-01-15T10:38:39;3.35;60.91
68511;SHT31;55512;50.102;19.958;2024-01-15T10:41:19;3.43;60.18
68511;SHT31;55512;50.102;19.958;2024-01-15T10:43:45;3.43;59.65
68511;SHT31;55512;50.102;19.958;2024-01-15T10:46:10;3.46;59.34
68511;SHT31;55512;50.102;19.958;2024-01-15T10:48:37;3.50;58.88
68511;SHT31;55512;50.102;19.958;2024-01-15T10:51:04;3.59;58.69
68511;SHT31;55512;50.102;19.958;2024-01-15T10:53:44;3.73;58.26
68511;SHT31;55512;50.102;19.958;2024-01-15T10:56:17;3.78;57.66
68511;SHT31;55512;50.102;19.958;2024-01-15T10:59:03;3.76;56.91
68511;SHT31;55512;50.102;19.958;2024-01-15T11:01:35;3.71;56.43
68511;SHT31;55512;50.102;19.958;2024-01-15T11:04:18;3.68;56.31
68511;SHT31;55512;50.102;19.958;2024-01-15T11:07:01;3.77;56.31
68511;SHT31;55512;50.102;19.958;2024-01-15T11:09:28;3.73;56.02
68511;SHT31;55512;50.102;19.958;2024-01-15T11:12:08;3.77;55.81
68511;SHT31;55512;50.102;19.958;2024-01-15T11:17:14;4.12;55.16
68511;SHT31;55512;50.102;19.958;2024-01-15T11:19:46;4.18;54.82
68511;SHT31;55512;50.102;19.958;2024-01-15T11:25:03;4.37;54.58
68511;SHT31;55512;50.102;19.958;2024-01-15T11:30:25;4.41;53.52
68511;SHT31;55512;50.102;19.958;2024-01-15T11:32:51;4.42;53.29
68511;SHT31;55512;50.102;19.958;2024-01-15T11:35:17;4.44;53.32
68511;SHT31;55512;50.102;19.958;2024-01-15T11:37:56;4.43;52.98
68511;SHT31;55512;50.102;19.958;2024-01-15T11:40:44;4.50;53.20
68511;SHT31;55512;50.102;19.958;2024-01-15T11:43:11;4.46;52.99
68511;SHT31;55512;50.102;19.958;2024-01-15T11:45:38;4.35;53.02
68511;SHT31;55512;50.102;19.958;2024-01-15T11:48:13;4.34;53.42
68511;SHT31;55512;50.102;19.958;2024-01-15T11:50:43;4.25;53.48
68511;SHT31;55512;50.102;19.958;2024-01-15T11:53:33;4.11;53.65
68511;SHT31;55512;50.102;19.958;2024-01-15T11:56:02;4.03;54.30
68511;SHT31;55512;50.102;19.958;2024-01-15T11:58:40;4.04;54.53
68511;SHT31;55512;50.102;19.958;2024-01-15T12:01:05;4.02;54.53
68511;SHT31;55512;50.102;19.958;2024-01-15T12:03:40;4.01;54.34
68511;SHT31;55512;50.102;19.958;2024-01-15T12:06:09;3.97;54.42
68511;SHT31;55512;50.102;19.958;2024-01-15T12:15:27;3.82;54.58
68511;SHT31;55512;50.102;19.958;2024-01-15T12:18:06;3.84;54.20
68511;SHT31;55512;50.102;19.958;2024-01-15T12:20:36;3.89;54.30
68511;SHT31;55512;50.102;19.958;2024-01-15T12:23:17;3.90;54.13
68511;SHT31;55512;50.102;19.958;2024-01-15T12:25:43;3.83;53.91
68511;SHT31;55512;50.102;19.958;2024-01-15T12:28:15;3.80;54.11
68511;SHT31;55512;50.102;19.958;2024-01-15T12:30:46;3.73;54.00
68511;SHT31;55512;50.102;19.958;2024-01-15T12:33:17;3.73;54.18
68511;SHT31;55512;50.102;19.958;2024-01-15T12:35:52;3.71;53.92
68511;SHT31;55512;50.102;19.958;2024-01-15T12:38:19;3.65;54.02
68511;SHT31;55512;50.102;19.958;2024-01-15T12:40:47;3.64;53.99
68511;SHT31;55512;50.102;19.958;2024-01-15T12:43:19;3.68;54.24
68511;SHT31;55512;50.102;19.958;2024-01-15T12:45:48;3.69;54.91
68511;SHT31;55512;50.102;19.958;2024-01-15T12:48:16;3.74;54.62
68511;SHT31;55512;50.102;19.958;2024-01-15T12:50:47;3.82;54.46
68511;SHT31;55512;50.102;19.958;2024-01-15T12:53:29;3.85;54.40
68511;SHT31;55512;50.102;19.958;2024-01-15T13:01:26;3.76;54.10
68511;SHT31;55512;50.102;19.958;2024-01-15T13:04:10;3.75;54.39
68511;SHT31;55512;50.102;19.958;2024-01-15T13:06:37;3.68;54.36
68511;SHT31;55512;50.102;19.958;2024-01-15T13:09:03;3.60;54.46
68511;SHT31;55512;50.102;19.958;2024-01-15T13:11:32;3.51;54.61
68511;SHT31;55512;50.102;19.958;2024-01-15T13:13:58;3.47;54.76
68511;SHT31;55512;50.102;19.958;2024-01-15T13:16:24;3.40;54.80
68511;SHT31;55512;50.102;19.958;2024-01-15T13:19:15;3.35;54.91
68511;SHT31;55512;50.102;19.958;2024-01-15T13:21:55;3.27;55.17
68511;SHT31;55512;50.102;19.958;2024-01-15T13:24:23;3.23;55.18
68511;SHT31;55512;50.102;19.958;2024-01-15T13:26:58;3.26;55.40
68511;SHT31;55512;50.102;19.958;2024-01-15T13:29:25;3.26;55.40
68511;SHT31;55512;50.102;19.958;2024-01-15T13:31:53;3.24;55.43
68511;SHT31;55512;50.102;19.958;2024-01-15T13:34:21;3.20;55.51
68511;SHT31;55512;50.102;19.958;2024-01-15T13:36:50;3.21;55.63
68511;SHT31;55512;50.102;19.958;2024-01-15T13:39:18;3.19;55.71
68511;SHT31;55512;50.102;19.958;2024-01-15T13:41:47;3.13;55.89
68511;SHT31;55512;50.102;19.958;2024-01-15T13:44:12;3.11;56.03
68511;SHT31;55512;50.102;19.958;2024-01-15T13:46:38;3.09;56.13
68511;SHT31;55512;50.102;19.958;2024-01-15T13:49:04;3.01;56.06
68511;SHT31;55512;50.102;19.958;2024-01-15T13:51:31;2.97;55.85
68511;SHT31;55512;50.102;19.958;2024-01-15T13:53:57;2.92;55.99
68511;SHT31;55512;50.102;19.958;2024-01-15T13:56:23;2.91;56.29
68511;SHT31;55512;50.102;19.958;2024-01-15T13:58:52;2.88;56.38
68511;SHT31;55512;50.102;19.958;2024-01-15T14:04:22;2.80;56.44
68511;SHT31;55512;50.102;19.958;2024-01-15T14:06:52;2.80;56.67
68511;SHT31;55512;50.102;19.958;2024-01-15T14:09:25;2.75;56.72
68511;SHT31;55512;50.102;19.958;2024-01-15T14:11:51;2.73;56.82
68511;SHT31;55512;50.102;19.958;2024-01-15T14:14:30;2.69;56.90
68511;SHT31;55512;50.102;19.958;2024-01-15T14:17:14;2.62;57.05
68511;SHT31;55512;50.102;19.958;2024-01-15T14:19:40;2.56;57.10
68511;SHT31;55512;50.102;19.958;2024-01-15T14:22:10;2.53;57.19
68511;SHT31;55512;50.102;19.958;2024-01-15T14:24:36;2.49;57.33
68511;SHT31;55512;50.102;19.958;2024-01-15T14:27:05;2.45;57.50
68511;SHT31;55512;50.102;19.958;2024-01-15T14:30:08;2.40;57.56
68511;SHT31;55512;50.102;19.958;2024-01-15T14:42:14;2.24;57.39
68511;SHT31;55512;50.102;19.958;2024-01-15T14:48:30;2.18;57.65
68511;SHT31;55512;50.102;19.958;2024-01-15T14:51:02;2.15;57.72
68511;SHT31;55512;50.102;19.958;2024-01-15T14:56:17;2.09;57.79
68511;SHT31;55512;50.102;19.958;2024-01-15T14:58:51;2.05;57.96
68511;SHT31;55512;50.102;19.958;2024-01-15T15:01:28;2.04;58.15
68511;SHT31;55512;50.102;19.958;2024-01-15T15:04:18;2.00;58.22
68511;SHT31;55512;50.102;19.958;2024-01-15T15:06:44;1.98;58.46
68511;SHT31;55512;50.102;19.958;2024-01-15T15:10:00;1.90;58.63
68511;SHT31;55512;50.102;19.958;2024-01-15T15:13:09;1.90;58.73
68511;SHT31;55512;50.102;19.958;2024-01-15T15:15:56;1.87;58.90
68511;SHT31;55512;50.102;19.958;2024-01-15T15:18:26;1.82;59.10
68511;SHT31;55512;50.102;19.958;2024-01-15T15:20:58;1.82;59.27
68511;SHT31;55512;50.102;19.958;2024-01-15T15:23:26;1.82;59.37
68511;SHT31;55512;50.102;19.958;2024-01-15T15:26:32;1.82;59.54
68511;SHT31;55512;50.102;19.958;2024-01-15T15:29:01;1.81;59.67
68511;SHT31;55512;50.102;19.958;2024-01-15T15:38:42;1.84;59.95
68511;SHT31;55512;50.102;19.958;2024-01-15T15:41:20;1.83;60.01
68511;SHT31;55512;50.102;19.958;2024-01-15T15:44:17;1.84;60.04
68511;SHT31;55512;50.102;19.958;2024-01-15T15:47:01;1.85;60.04
68511;SHT31;55512;50.102;19.958;2024-01-15T15:49:49;1.86;60.09
68511;SHT31;55512;50.102;19.958;2024-01-15T15:52:31;1.87;60.15
68511;SHT31;55512;50.102;19.958;2024-01-15T15:55:35;1.87;60.21
68511;SHT31;55512;50.102;19.958;2024-01-15T15:58:51;1.86;60.31
68511;SHT31;55512;50.102;19.958;2024-01-15T16:01:25;1.86;60.38
68511;SHT31;55512;50.102;19.958;2024-01-15T16:04:09;1.85;60.45
68511;SHT31;55512;50.102;19.958;2024-01-15T16:06:46;1.84;60.58
68511;SHT31;55512;50.102;19.958;2024-01-15T16:09:19;1.85;60.65
68511;SHT31;55512;50.102;19.958;2024-01-15T16:11:48;1.84;60.67
68511;SHT31;55512;50.102;19.958;2024-01-15T16:14:28;1.82;60.73
68511;SHT31;55512;50.102;19.958;2024-01-15T16:17:02;1.85;60.78
68511;SHT31;55512;50.102;19.958;2024-01-15T16:19:31;1.89;60.67
68511;SHT31;55512;50.102;19.958;2024-01-15T16:22:19;1.89;60.60
68511;SHT31;55512;50.102;19.958;2024-01-15T16:24:45;1.91;60.64
68511;SHT31;55512;50.102;19.958;2024-01-15T16:27:11;1.92;60.78
68511;SHT31;55512;50.102;19.958;2024-01-15T16:29:47;1.92;60.79
68511;SHT31;55512;50.102;19.958;2024-01-15T16:32:12;1.93;60.80
68511;SHT31;55512;50.102;19.958;2024-01-15T16:34:38;1.95;60.80
68511;SHT31;55512;50.102;19.958;2024-01-15T16:37:04;1.98;60.86
68511;SHT31;55512;50.102;19.958;2024-01-15T16:39:31;2.00;60.97
68511;SHT31;55512;50.102;19.958;2024-01-15T16:41:57;2.00;61.00
68511;SHT31;55512;50.102;19.958;2024-01-15T16:44:22;2.02;61.04
68511;SHT31;55512;50.102;19.958;2024-01-15T16:46:48;2.03;61.03
68511;SHT31;55512;50.102;19.958;2024-01-15T16:49:14;2.06;61.01
68511;SHT31;55512;50.102;19.958;2024-01-15T16:51:39;2.09;60.96
68511;SHT31;55512;50.102;19.958;2024-01-15T16:54:05;2.10;61.02